createdAt,value
2019-04-10T00:00:00.511Z,1011.07
2019-04-10T00:01:12.132Z,1011.11
2019-04-10T00:02:23.726Z,1011.14
2019-04-10T00:03:37.657Z,1011.16
2019-04-10T00:04:51.669Z,1011.19
2019-04-10T00:06:02.555Z,1011.17
2019-04-10T00:07:18.007Z,1011.16
2019-04-10T00:08:30.348Z,1011.17
2019-04-10T00:09:43.361Z,1011.16
2019-04-10T00:10:52.869Z,1011.16
2019-04-10T00:12:05.352Z,1011.18
2019-04-10T00:13:16.449Z,1011.19
2019-04-10T00:14:28.229Z,1011.17
2019-04-10T00:15:38.901Z,1011.23
2019-04-10T00:16:52.142Z,1011.19
2019-04-10T00:18:03.154Z,1011.18
2019-04-10T00:19:12.874Z,1011.21
2019-04-10T00:20:24.532Z,1011.22
2019-04-10T00:21:35.511Z,1011.19
2019-04-10T00:22:46.256Z,1011.18
2019-04-10T00:23:56.284Z,1011.2
2019-04-10T00:25:07.189Z,1011.17
2019-04-10T00:26:19.506Z,1011.17
2019-04-10T00:27:30.688Z,1011.16
2019-04-10T00:28:41.743Z,1011.15
2019-04-10T00:29:52.540Z,1011.19
2019-04-10T00:31:03.505Z,1011.13
2019-04-10T00:32:14.644Z,1011.13
2019-04-10T00:33:25.020Z,1011.14
2019-04-10T00:34:35.811Z,1011.1
2019-04-10T00:35:46.107Z,1011.12
2019-04-10T00:36:57.504Z,1011.14
2019-04-10T00:38:22.588Z,1011.14
2019-04-10T00:39:34.893Z,1011.09
2019-04-10T00:40:45.771Z,1011.13
2019-04-10T00:41:56.745Z,1011.06
2019-04-10T00:43:08.925Z,1011.08
2019-04-10T00:44:19.946Z,1011.12
2019-04-10T00:45:31.021Z,1011.13
2019-04-10T00:46:42.278Z,1011.16
2019-04-10T00:47:53.273Z,1011.15
2019-04-10T00:49:04.874Z,1011.12
2019-04-10T00:50:15.963Z,1011.13
2019-04-10T00:51:27.585Z,1011.16
2019-04-10T00:52:38.610Z,1011.16
2019-04-10T00:53:49.744Z,1011.17
2019-04-10T00:55:00.128Z,1011.18
2019-04-10T00:56:12.442Z,1011.19
2019-04-10T00:57:25.438Z,1011.12
2019-04-10T00:58:37.650Z,1011.12
2019-04-10T00:59:48.850Z,1011.16
2019-04-10T01:00:59.886Z,1011.22
2019-04-10T01:02:12.225Z,1011.21
2019-04-10T01:03:21.791Z,1011.24
2019-04-10T01:04:32.773Z,1011.2
2019-04-10T01:05:43.806Z,1011.21
2019-04-10T01:06:54.601Z,1011.19
2019-04-10T01:08:06.479Z,1011.2
2019-04-10T01:09:17.375Z,1011.2
2019-04-10T01:10:26.940Z,1011.18
2019-04-10T01:11:39.269Z,1011.13
2019-04-10T01:12:50.349Z,1011.19
2019-04-10T01:14:01.518Z,1011.14
2019-04-10T01:15:12.833Z,1011.17
2019-04-10T01:16:23.559Z,1011.18
2019-04-10T01:17:34.676Z,1011.19
2019-04-10T01:18:45.803Z,1011.21
2019-04-10T01:19:56.546Z,1011.19
2019-04-10T01:21:12.981Z,1011.13
2019-04-10T01:22:24.045Z,1011.16
2019-04-10T01:23:35.884Z,1011.16
2019-04-10T01:24:48.056Z,1011.18
2019-04-10T01:25:58.865Z,1011.17
2019-04-10T01:27:09.661Z,1011.17
2019-04-10T01:28:20.785Z,1011.15
2019-04-10T01:29:31.481Z,1011.15
2019-04-10T01:30:42.611Z,1011.19
2019-04-10T01:31:53.593Z,1011.14
2019-04-10T01:33:04.448Z,1011.13
2019-04-10T01:34:15.314Z,1011.16
2019-04-10T01:35:26.593Z,1011.16
2019-04-10T01:36:37.545Z,1011.13
2019-04-10T01:37:53.360Z,1011.15
2019-04-10T01:39:11.825Z,1011.14
2019-04-10T01:40:23.357Z,1011.19
2019-04-10T01:41:36.258Z,1011.19
2019-04-10T01:42:59.763Z,1011.17
2019-04-10T01:44:25.325Z,1011.17
2019-04-10T01:45:37.691Z,1011.21
2019-04-10T01:46:47.405Z,1011.18
2019-04-10T01:47:58.199Z,1011.17
2019-04-10T01:49:10.480Z,1011.2
2019-04-10T01:50:20.923Z,1011.18
2019-04-10T01:51:31.555Z,1011.19
2019-04-10T01:52:44.888Z,1011.14
2019-04-10T01:53:55.940Z,1011.18
2019-04-10T01:55:16.730Z,1011.17
2019-04-10T01:56:39.695Z,1011.17
2019-04-10T01:57:50.583Z,1011.19
2019-04-10T01:59:01.514Z,1011.21
2019-04-10T02:00:13.198Z,1011.23
2019-04-10T02:01:24.441Z,1011.25
2019-04-10T02:02:35.426Z,1011.18
2019-04-10T02:03:46.575Z,1011.2
2019-04-10T02:04:58.396Z,1011.16
2019-04-10T02:06:09.275Z,1011.17
2019-04-10T02:07:20.191Z,1011.17
2019-04-10T02:08:32.741Z,1011.18
2019-04-10T02:09:43.667Z,1011.13
2019-04-10T02:10:54.962Z,1011.19
2019-04-10T02:12:07.261Z,1011.17
2019-04-10T02:13:19.173Z,1011.15
2019-04-10T02:14:30.057Z,1011.19
2019-04-10T02:15:41.831Z,1011.14
2019-04-10T02:16:52.657Z,1011.16
2019-04-10T02:18:01.845Z,1011.2
2019-04-10T02:19:14.299Z,1011.17
2019-04-10T02:20:24.987Z,1011.12
2019-04-10T02:21:35.956Z,1011.15
2019-04-10T02:22:45.821Z,1011.14
2019-04-10T02:23:56.881Z,1011.16
2019-04-10T02:25:08.041Z,1011.17
2019-04-10T02:26:19.139Z,1011.18
2019-04-10T02:27:30.095Z,1011.2
2019-04-10T02:28:40.999Z,1011.2
2019-04-10T02:29:52.293Z,1011.19
2019-04-10T02:31:04.696Z,1011.2
2019-04-10T02:32:18.376Z,1011.16
2019-04-10T02:33:33.575Z,1011.14
2019-04-10T02:34:45.963Z,1011.08
2019-04-10T02:36:03.491Z,1011.11
2019-04-10T02:37:15.236Z,1011.07
2019-04-10T02:38:48.734Z,1011.09
2019-04-10T02:40:47.658Z,1011.07
2019-04-10T02:42:00.717Z,1011.02
2019-04-10T02:43:14.012Z,1011.05
2019-04-10T02:44:28.729Z,1011.04
2019-04-10T02:45:44.190Z,1011.1
2019-04-10T02:46:57.867Z,1011.11
2019-04-10T02:48:14.876Z,1011.09
2019-04-10T02:49:28.084Z,1011.09
2019-04-10T02:50:43.162Z,1011.06
2019-04-10T02:51:56.985Z,1011.07
2019-04-10T02:53:12.936Z,1011.08
2019-04-10T02:54:27.024Z,1011.09
2019-04-10T02:55:43.116Z,1011.1
2019-04-10T02:56:58.675Z,1011.12
2019-04-10T02:58:14.257Z,1011.11
2019-04-10T02:59:29.139Z,1011.09
2019-04-10T03:00:44.223Z,1011.14
2019-04-10T03:02:00.275Z,1011.12
2019-04-10T03:03:15.874Z,1011.18
2019-04-10T03:04:28.542Z,1011.12
2019-04-10T03:05:42.554Z,1011.13
2019-04-10T03:06:55.467Z,1011.13
2019-04-10T03:08:08.941Z,1011.13
2019-04-10T03:10:14.825Z,1011.15
2019-04-10T03:12:03.705Z,1011.13
2019-04-10T03:13:21.729Z,1011.17
2019-04-10T03:14:39.202Z,1011.16
2019-04-10T03:16:00.027Z,1011.18
2019-04-10T03:17:12.325Z,1011.2
2019-04-10T03:18:23.036Z,1011.23
2019-04-10T03:19:33.733Z,1011.19
2019-04-10T03:20:44.689Z,1011.2
2019-04-10T03:21:55.508Z,1011.24
2019-04-10T03:23:09.329Z,1011.2
2019-04-10T03:24:21.486Z,1011.2
2019-04-10T03:25:32.996Z,1011.21
2019-04-10T03:26:44.188Z,1011.17
2019-04-10T03:27:55.025Z,1011.2
2019-04-10T03:29:06.044Z,1011.18
2019-04-10T03:30:18.281Z,1011.22
2019-04-10T03:31:38.931Z,1011.17
2019-04-10T03:33:02.520Z,1011.19
2019-04-10T03:34:38.785Z,1011.23
2019-04-10T03:35:57.167Z,1011.27
2019-04-10T03:37:08.360Z,1011.24
2019-04-10T03:38:19.083Z,1011.24
2019-04-10T03:39:30.746Z,1011.23
2019-04-10T03:40:43.781Z,1011.23
2019-04-10T03:41:54.640Z,1011.23
2019-04-10T03:43:07.665Z,1011.21
2019-04-10T03:44:18.698Z,1011.22
2019-04-10T03:45:30.925Z,1011.2
2019-04-10T03:46:42.617Z,1011.23
2019-04-10T03:47:55.845Z,1011.24
2019-04-10T03:49:09.587Z,1011.25
2019-04-10T03:50:20.639Z,1011.25
2019-04-10T03:51:32.475Z,1011.26
2019-04-10T03:52:43.603Z,1011.26
2019-04-10T03:53:54.705Z,1011.26
2019-04-10T03:55:04.852Z,1011.26
2019-04-10T03:56:17.962Z,1011.28
2019-04-10T03:57:30.893Z,1011.29
2019-04-10T03:58:41.879Z,1011.27
2019-04-10T03:59:52.486Z,1011.25
2019-04-10T04:01:04.844Z,1011.25
2019-04-10T04:02:15.694Z,1011.23
2019-04-10T04:03:28.711Z,1011.27
2019-04-10T04:04:41.754Z,1011.27
2019-04-10T04:05:53.144Z,1011.31
2019-04-10T04:07:04.971Z,1011.25
2019-04-10T04:08:15.855Z,1011.24
2019-04-10T04:09:27.224Z,1011.27
2019-04-10T04:10:38.252Z,1011.25
2019-04-10T04:11:48.177Z,1011.25
2019-04-10T04:12:59.984Z,1011.27
2019-04-10T04:14:14.470Z,1011.29
2019-04-10T04:15:26.102Z,1011.31
2019-04-10T04:16:37.300Z,1011.29
2019-04-10T04:17:48.514Z,1011.33
2019-04-10T04:19:01.714Z,1011.34
2019-04-10T04:20:12.877Z,1011.36
2019-04-10T04:21:23.786Z,1011.33
2019-04-10T04:22:34.895Z,1011.34
2019-04-10T04:23:46.819Z,1011.34
2019-04-10T04:24:58.197Z,1011.33
2019-04-10T04:26:07.703Z,1011.32
2019-04-10T04:27:18.859Z,1011.32
2019-04-10T04:28:30.037Z,1011.35
2019-04-10T04:29:41.279Z,1011.3
2019-04-10T04:30:53.768Z,1011.35
2019-04-10T04:32:05.425Z,1011.35
2019-04-10T04:33:16.285Z,1011.38
2019-04-10T04:34:27.185Z,1011.37
2019-04-10T04:35:38.427Z,1011.37
2019-04-10T04:36:49.117Z,1011.35
2019-04-10T04:37:59.077Z,1011.38
2019-04-10T04:39:18.510Z,1011.38
2019-04-10T04:40:37.856Z,1011.37
2019-04-10T04:41:47.863Z,1011.38
2019-04-10T04:42:57.950Z,1011.43
2019-04-10T04:44:08.920Z,1011.38
2019-04-10T04:45:21.507Z,1011.38
2019-04-10T04:46:32.376Z,1011.39
2019-04-10T04:47:43.328Z,1011.39
2019-04-10T04:48:54.452Z,1011.42
2019-04-10T04:50:05.563Z,1011.41
2019-04-10T04:51:16.169Z,1011.47
2019-04-10T04:52:27.863Z,1011.47
2019-04-10T04:53:38.014Z,1011.48
2019-04-10T04:54:49.711Z,1011.47
2019-04-10T04:56:01.724Z,1011.49
2019-04-10T04:57:12.752Z,1011.47
2019-04-10T04:58:24.123Z,1011.49
2019-04-10T04:59:34.632Z,1011.47
2019-04-10T05:00:45.909Z,1011.5
2019-04-10T05:01:57.367Z,1011.5
2019-04-10T05:03:07.722Z,1011.53
2019-04-10T05:04:17.504Z,1011.54
2019-04-10T05:05:29.171Z,1011.55
2019-04-10T05:06:39.646Z,1011.57
2019-04-10T05:07:59.062Z,1011.58
2019-04-10T05:09:25.807Z,1011.68
2019-04-10T05:10:47.435Z,1011.65
2019-04-10T05:11:58.606Z,1011.66
2019-04-10T05:13:08.246Z,1011.7
2019-04-10T05:14:19.561Z,1011.68
2019-04-10T05:15:30.880Z,1011.7
2019-04-10T05:16:41.672Z,1011.69
2019-04-10T05:17:53.452Z,1011.7
2019-04-10T05:19:04.554Z,1011.7
2019-04-10T05:20:15.585Z,1011.72
2019-04-10T05:21:39.730Z,1011.75
2019-04-10T05:22:52.277Z,1011.74
2019-04-10T05:24:03.213Z,1011.75
2019-04-10T05:25:14.108Z,1011.75
2019-04-10T05:26:25.635Z,1011.78
2019-04-10T05:27:37.124Z,1011.73
2019-04-10T05:28:47.406Z,1011.76
2019-04-10T05:29:58.202Z,1011.78
2019-04-10T05:31:09.318Z,1011.75
2019-04-10T05:32:21.386Z,1011.75
2019-04-10T05:33:31.507Z,1011.76
2019-04-10T05:34:43.190Z,1011.82
2019-04-10T05:35:55.586Z,1011.8
2019-04-10T05:37:07.473Z,1011.82
2019-04-10T05:38:20.680Z,1011.82
2019-04-10T05:39:40.414Z,1011.8
2019-04-10T05:40:59.733Z,1011.84
2019-04-10T05:42:10.619Z,1011.83
2019-04-10T05:43:21.945Z,1011.84
2019-04-10T05:44:31.982Z,1011.84
2019-04-10T05:45:42.998Z,1011.87
2019-04-10T05:46:54.839Z,1011.88
2019-04-10T05:48:06.772Z,1011.85
2019-04-10T05:49:17.850Z,1011.89
2019-04-10T05:50:28.069Z,1011.91
2019-04-10T05:51:39.543Z,1011.92
2019-04-10T05:52:51.712Z,1011.92
2019-04-10T05:54:02.908Z,1011.99
2019-04-10T05:55:14.078Z,1011.95
2019-04-10T05:56:25.860Z,1011.94
2019-04-10T05:57:37.004Z,1011.91
2019-04-10T05:58:48.980Z,1011.92
2019-04-10T06:00:00.524Z,1011.96
2019-04-10T06:01:11.559Z,1011.91
2019-04-10T06:02:39.787Z,1011.95
2019-04-10T06:03:51.128Z,1011.94
2019-04-10T06:05:03.518Z,1012
2019-04-10T06:06:14.599Z,1011.95
2019-04-10T06:07:25.329Z,1012
2019-04-10T06:08:35.742Z,1011.98
2019-04-10T06:09:55.498Z,1012
2019-04-10T06:11:17.125Z,1011.99
2019-04-10T06:12:30.283Z,1011.99
2019-04-10T06:13:41.654Z,1012.02
2019-04-10T06:14:54.583Z,1012.01
2019-04-10T06:16:05.672Z,1011.99
2019-04-10T06:17:16.397Z,1012
2019-04-10T06:18:27.795Z,1011.99
2019-04-10T06:19:40.540Z,1011.99
2019-04-10T06:20:51.771Z,1011.99
2019-04-10T06:22:03.434Z,1012.01
2019-04-10T06:23:15.629Z,1011.99
2019-04-10T06:24:26.514Z,1011.98
2019-04-10T06:25:39.241Z,1011.99
2019-04-10T06:26:52.707Z,1011.96
2019-04-10T06:28:05.307Z,1011.99
2019-04-10T06:29:16.960Z,1011.97
2019-04-10T06:30:30.129Z,1011.99
2019-04-10T06:31:40.948Z,1012
2019-04-10T06:32:53.797Z,1012.02
2019-04-10T06:34:05.128Z,1012.01
2019-04-10T06:35:24.015Z,1012.03
2019-04-10T06:36:36.110Z,1012.05
2019-04-10T06:37:48.236Z,1012.06
2019-04-10T06:39:00.273Z,1012.06
2019-04-10T06:40:18.577Z,1012.06
2019-04-10T06:41:34.843Z,1012.07
2019-04-10T06:42:50.615Z,1012.09
2019-04-10T06:44:05.734Z,1012.01
2019-04-10T06:45:17.922Z,1012.01
2019-04-10T06:46:29.235Z,1012.03
2019-04-10T06:47:44.732Z,1012.01
2019-04-10T06:48:56.311Z,1012.01
2019-04-10T06:50:10.561Z,1012.05
2019-04-10T06:51:21.832Z,1012.07
2019-04-10T06:52:34.535Z,1012.06
2019-04-10T06:53:45.506Z,1012.03
2019-04-10T06:55:16.896Z,1012.05
2019-04-10T06:56:27.131Z,1012.04
2019-04-10T06:57:46.729Z,1012.06
2019-04-10T06:59:06.636Z,1012.04
2019-04-10T07:00:18.379Z,1012.04
2019-04-10T07:01:40.307Z,1012.07
2019-04-10T07:03:38.317Z,1012.08
2019-04-10T07:05:12.429Z,1012.08
2019-04-10T07:06:49.693Z,1012.11
2019-04-10T07:08:25.391Z,1012.09
2019-04-10T07:09:37.913Z,1012.09
2019-04-10T07:10:54.544Z,1012.17
2019-04-10T07:12:29.982Z,1012.21
2019-04-10T07:13:43.069Z,1012.18
2019-04-10T07:14:58.172Z,1012.17
2019-04-10T07:16:10.014Z,1012.19
2019-04-10T07:17:22.001Z,1012.23
2019-04-10T07:18:38.261Z,1012.23
2019-04-10T07:19:55.590Z,1012.24
2019-04-10T07:21:06.405Z,1012.29
2019-04-10T07:22:17.796Z,1012.29
2019-04-10T07:23:30.101Z,1012.27
2019-04-10T07:24:42.531Z,1012.28
2019-04-10T07:25:56.309Z,1012.3
2019-04-10T07:27:07.802Z,1012.3
2019-04-10T07:28:20.010Z,1012.29
2019-04-10T07:29:31.302Z,1012.3
2019-04-10T07:30:43.526Z,1012.31
2019-04-10T07:32:00.452Z,1012.34
2019-04-10T07:33:21.019Z,1012.38
2019-04-10T07:34:32.056Z,1012.36
2019-04-10T07:35:43.022Z,1012.41
2019-04-10T07:37:00.188Z,1012.39
2019-04-10T07:38:18.982Z,1012.39
2019-04-10T07:39:33.936Z,1012.41
2019-04-10T07:40:47.597Z,1012.4
2019-04-10T07:42:00.031Z,1012.43
2019-04-10T07:43:11.070Z,1012.45
2019-04-10T07:44:29.588Z,1012.46
2019-04-10T07:45:39.309Z,1012.46
2019-04-10T07:46:49.264Z,1012.49
2019-04-10T07:48:06.603Z,1012.52
2019-04-10T07:49:19.304Z,1012.52
2019-04-10T07:50:41.114Z,1012.54
2019-04-10T07:51:54.466Z,1012.49
2019-04-10T07:53:06.224Z,1012.57
2019-04-10T07:54:20.789Z,1012.55
2019-04-10T07:55:31.674Z,1012.58
2019-04-10T07:56:57.882Z,1012.57
2019-04-10T07:58:09.741Z,1012.59
2019-04-10T07:59:21.707Z,1012.65
2019-04-10T08:00:34.430Z,1012.58
2019-04-10T08:01:45.698Z,1012.59
2019-04-10T08:02:57.453Z,1012.62
2019-04-10T08:04:08.761Z,1012.6
2019-04-10T08:05:21.057Z,1012.59
2019-04-10T08:06:31.032Z,1012.62
2019-04-10T08:07:40.603Z,1012.59
2019-04-10T08:08:53.888Z,1012.61
2019-04-10T08:10:05.545Z,1012.64
2019-04-10T08:11:17.493Z,1012.61
2019-04-10T08:12:39.232Z,1012.63
2019-04-10T08:14:01.100Z,1012.63
2019-04-10T08:15:16.500Z,1012.6
2019-04-10T08:16:28.012Z,1012.63
2019-04-10T08:17:38.980Z,1012.61
2019-04-10T08:18:54.505Z,1012.63
2019-04-10T08:20:05.820Z,1012.66
2019-04-10T08:21:16.185Z,1012.66
2019-04-10T08:22:28.664Z,1012.62
2019-04-10T08:23:39.726Z,1012.61
2019-04-10T08:24:51.707Z,1012.64
2019-04-10T08:26:03.562Z,1012.67
2019-04-10T08:27:14.727Z,1012.66
2019-04-10T08:28:25.948Z,1012.64
2019-04-10T08:29:39.300Z,1012.66
2019-04-10T08:30:52.246Z,1012.7
2019-04-10T08:32:05.579Z,1012.69
2019-04-10T08:33:17.447Z,1012.69
2019-04-10T08:34:28.579Z,1012.72
2019-04-10T08:35:39.784Z,1012.69
2019-04-10T08:36:52.542Z,1012.73
2019-04-10T08:38:05.479Z,1012.69
2019-04-10T08:39:28.074Z,1012.73
2019-04-10T08:40:56.478Z,1012.78
2019-04-10T08:42:09.063Z,1012.73
2019-04-10T08:43:20.174Z,1012.71
2019-04-10T08:44:32.998Z,1012.75
2019-04-10T08:45:48.347Z,1012.71
2019-04-10T08:47:02.855Z,1012.72
2019-04-10T08:48:13.935Z,1012.7
2019-04-10T08:49:28.269Z,1012.68
2019-04-10T08:50:39.417Z,1012.77
2019-04-10T08:51:50.783Z,1012.72
2019-04-10T08:53:01.970Z,1012.76
2019-04-10T08:54:12.521Z,1012.73
2019-04-10T08:55:24.332Z,1012.75
2019-04-10T08:56:36.435Z,1012.74
2019-04-10T08:57:47.754Z,1012.74
2019-04-10T08:58:59.273Z,1012.71
2019-04-10T09:00:10.426Z,1012.76
2019-04-10T09:01:21.652Z,1012.71
2019-04-10T09:02:33.974Z,1012.71
2019-04-10T09:03:44.891Z,1012.7
2019-04-10T09:04:56.030Z,1012.71
2019-04-10T09:06:07.290Z,1012.73
2019-04-10T09:07:18.553Z,1012.74
2019-04-10T09:08:29.499Z,1012.74
2019-04-10T09:09:40.256Z,1012.73
2019-04-10T09:10:50.871Z,1012.75
2019-04-10T09:12:01.825Z,1012.71
2019-04-10T09:13:12.620Z,1012.68
2019-04-10T09:14:23.167Z,1012.68
2019-04-10T09:15:36.096Z,1012.68
2019-04-10T09:16:46.841Z,1012.66
2019-04-10T09:17:59.778Z,1012.68
2019-04-10T09:19:12.066Z,1012.7
2019-04-10T09:20:26.766Z,1012.74
2019-04-10T09:21:39.019Z,1012.72
2019-04-10T09:23:13.126Z,1012.72
2019-04-10T09:25:02.715Z,1012.61
2019-04-10T09:26:13.425Z,1012.62
2019-04-10T09:27:23.437Z,1012.63
2019-04-10T09:28:34.796Z,1012.62
2019-04-10T09:29:47.047Z,1012.61
2019-04-10T09:30:57.463Z,1012.61
2019-04-10T09:32:08.447Z,1012.61
2019-04-10T09:33:24.859Z,1012.6
2019-04-10T09:34:40.135Z,1012.59
2019-04-10T09:35:53.475Z,1012.58
2019-04-10T09:37:03.916Z,1012.56
2019-04-10T09:38:14.617Z,1012.57
2019-04-10T09:39:27.555Z,1012.57
2019-04-10T09:40:40.498Z,1012.58
2019-04-10T09:41:52.305Z,1012.57
2019-04-10T09:43:01.873Z,1012.54
2019-04-10T09:44:14.805Z,1012.52
2019-04-10T09:45:26.661Z,1012.59
2019-04-10T09:46:37.845Z,1012.61
2019-04-10T09:47:48.465Z,1012.6
2019-04-10T09:48:58.669Z,1012.57
2019-04-10T09:50:12.826Z,1012.59
2019-04-10T09:51:25.683Z,1012.56
2019-04-10T09:52:37.591Z,1012.57
2019-04-10T09:53:49.059Z,1012.55
2019-04-10T09:55:00.215Z,1012.52
2019-04-10T09:56:11.519Z,1012.49
2019-04-10T09:57:22.461Z,1012.49
2019-04-10T09:58:32.709Z,1012.52
2019-04-10T09:59:43.441Z,1012.5
2019-04-10T10:00:56.472Z,1012.47
2019-04-10T10:02:09.204Z,1012.53
2019-04-10T10:03:19.965Z,1012.49
2019-04-10T10:04:31.252Z,1012.5
2019-04-10T10:05:42.571Z,1012.46
2019-04-10T10:06:53.738Z,1012.5
2019-04-10T10:08:04.847Z,1012.47
2019-04-10T10:09:17.600Z,1012.56
2019-04-10T10:10:29.510Z,1012.53
2019-04-10T10:11:45.518Z,1012.49
2019-04-10T10:12:56.908Z,1012.5
2019-04-10T10:14:07.931Z,1012.51
2019-04-10T10:15:18.951Z,1012.49
2019-04-10T10:16:30.414Z,1012.5
2019-04-10T10:17:42.636Z,1012.52
2019-04-10T10:18:53.967Z,1012.54
2019-04-10T10:20:06.201Z,1012.56
2019-04-10T10:21:16.994Z,1012.53
2019-04-10T10:22:27.382Z,1012.54
2019-04-10T10:23:40.095Z,1012.56
2019-04-10T10:24:53.074Z,1012.58
2019-04-10T10:26:05.839Z,1012.56
2019-04-10T10:27:15.960Z,1012.57
2019-04-10T10:28:27.594Z,1012.51
2019-04-10T10:29:39.920Z,1012.51
2019-04-10T10:30:53.668Z,1012.53
2019-04-10T10:32:04.784Z,1012.53
2019-04-10T10:33:15.849Z,1012.51
2019-04-10T10:34:26.639Z,1012.51
2019-04-10T10:35:37.457Z,1012.5
2019-04-10T10:36:51.973Z,1012.48
2019-04-10T10:38:05.395Z,1012.55
2019-04-10T10:39:17.254Z,1012.55
2019-04-10T10:40:29.810Z,1012.56
2019-04-10T10:41:40.518Z,1012.53
2019-04-10T10:42:51.890Z,1012.64
2019-04-10T10:44:03.137Z,1012.57
2019-04-10T10:45:14.434Z,1012.54
2019-04-10T10:46:25.688Z,1012.54
2019-04-10T10:47:36.743Z,1012.54
2019-04-10T10:48:49.356Z,1012.58
2019-04-10T10:50:01.058Z,1012.56
2019-04-10T10:51:12.828Z,1012.57
2019-04-10T10:52:23.712Z,1012.58
2019-04-10T10:53:34.534Z,1012.56
2019-04-10T10:54:45.195Z,1012.6
2019-04-10T10:55:57.986Z,1012.56
2019-04-10T10:57:10.991Z,1012.56
2019-04-10T10:58:21.813Z,1012.58
2019-04-10T10:59:33.522Z,1012.53
2019-04-10T11:00:44.696Z,1012.56
2019-04-10T11:01:56.518Z,1012.54
2019-04-10T11:03:07.842Z,1012.54
2019-04-10T11:04:19.165Z,1012.56
2019-04-10T11:05:31.820Z,1012.54
2019-04-10T11:06:51.216Z,1012.53
2019-04-10T11:08:09.099Z,1012.53
2019-04-10T11:09:22.409Z,1012.5
2019-04-10T11:10:36.052Z,1012.47
2019-04-10T11:11:56.270Z,1012.55
2019-04-10T11:13:10.401Z,1012.51
2019-04-10T11:14:21.410Z,1012.5
2019-04-10T11:15:34.053Z,1012.53
2019-04-10T11:16:53.663Z,1012.51
2019-04-10T11:18:06.777Z,1012.5
2019-04-10T11:19:19.794Z,1012.45
2019-04-10T11:20:32.305Z,1012.46
2019-04-10T11:21:45.089Z,1012.4
2019-04-10T11:22:57.795Z,1012.46
2019-04-10T11:24:11.042Z,1012.46
2019-04-10T11:25:23.736Z,1012.46
2019-04-10T11:26:37.564Z,1012.47
2019-04-10T11:27:51.562Z,1012.41
2019-04-10T11:29:05.492Z,1012.34
2019-04-10T11:30:18.296Z,1012.38
2019-04-10T11:31:31.352Z,1012.4
2019-04-10T11:32:46.597Z,1012.43
2019-04-10T11:34:04.119Z,1012.43
2019-04-10T11:35:19.136Z,1012.4
2019-04-10T11:36:29.986Z,1012.45
2019-04-10T11:37:47.304Z,1012.43
2019-04-10T11:39:16.644Z,1012.47
2019-04-10T11:42:44.710Z,1012.49
2019-04-10T11:44:03.410Z,1012.47
2019-04-10T11:45:28.720Z,1012.43
2019-04-10T11:48:52.360Z,1012.46
2019-04-10T11:50:15.296Z,1012.46
2019-04-10T11:51:36.623Z,1012.46
2019-04-10T11:55:06.687Z,1012.48
2019-04-10T11:56:45.669Z,1012.49
2019-04-10T11:58:10.184Z,1012.48
2019-04-10T12:01:31.196Z,1012.46
2019-04-10T12:02:52.720Z,1012.44
2019-04-10T12:04:14.158Z,1012.45
2019-04-10T12:05:46.746Z,1012.43
2019-04-10T12:07:09.585Z,1012.37
2019-04-10T12:11:59.382Z,1012.48
2019-04-10T12:13:10.183Z,1012.41
2019-04-10T12:14:25.594Z,1012.39
2019-04-10T12:15:36.476Z,1012.47
2019-04-10T12:16:49.455Z,1012.41
2019-04-10T12:18:02.285Z,1012.43
2019-04-10T12:19:15.196Z,1012.47
2019-04-10T12:20:29.128Z,1012.46
2019-04-10T12:21:42.088Z,1012.47
2019-04-10T12:22:54.559Z,1012.43
2019-04-10T12:24:05.847Z,1012.46
2019-04-10T12:25:17.075Z,1012.43
2019-04-10T12:26:28.112Z,1012.43
2019-04-10T12:27:39.132Z,1012.44
2019-04-10T12:28:50.220Z,1012.45
2019-04-10T12:30:01.066Z,1012.45
2019-04-10T12:31:12.136Z,1012.49
2019-04-10T12:32:24.932Z,1012.45
2019-04-10T12:33:37.975Z,1012.45
2019-04-10T12:34:48.695Z,1012.47
2019-04-10T12:36:00.303Z,1012.43
2019-04-10T12:37:11.176Z,1012.46
2019-04-10T12:38:23.241Z,1012.42
2019-04-10T12:39:34.705Z,1012.4
2019-04-10T12:40:46.700Z,1012.47
2019-04-10T12:41:57.688Z,1012.44
2019-04-10T12:43:08.528Z,1012.45
2019-04-10T12:44:19.553Z,1012.44
2019-04-10T12:45:30.684Z,1012.36
2019-04-10T12:46:41.546Z,1012.41
2019-04-10T12:47:52.404Z,1012.44
2019-04-10T12:49:03.748Z,1012.39
2019-04-10T12:50:16.232Z,1012.43
2019-04-10T12:51:25.750Z,1012.41
2019-04-10T12:52:35.756Z,1012.39
2019-04-10T12:53:48.368Z,1012.41
2019-04-10T12:55:01.907Z,1012.45
2019-04-10T12:56:13.723Z,1012.4
2019-04-10T12:57:24.566Z,1012.49
2019-04-10T12:58:35.347Z,1012.52
2019-04-10T12:59:45.796Z,1012.52
2019-04-10T13:01:06.618Z,1012.52
2019-04-10T13:02:18.430Z,1012.51
2019-04-10T13:03:29.371Z,1012.58
2019-04-10T13:04:42.827Z,1012.55
2019-04-10T13:05:53.571Z,1012.56
2019-04-10T13:07:05.768Z,1012.51
2019-04-10T13:08:21.604Z,1012.53
2019-04-10T13:10:13.486Z,1012.47
2019-04-10T13:11:24.567Z,1012.5
2019-04-10T13:12:35.450Z,1012.49
2019-04-10T13:13:46.317Z,1012.51
2019-04-10T13:14:59.115Z,1012.46
2019-04-10T13:16:11.964Z,1012.49
2019-04-10T13:17:24.795Z,1012.52
2019-04-10T13:18:36.420Z,1012.5
2019-04-10T13:19:47.289Z,1012.49
2019-04-10T13:20:58.130Z,1012.5
2019-04-10T13:22:09.546Z,1012.52
2019-04-10T13:23:20.827Z,1012.49
2019-04-10T13:24:31.621Z,1012.45
2019-04-10T13:25:46.359Z,1012.45
2019-04-10T13:27:14.683Z,1012.48
2019-04-10T13:28:27.580Z,1012.46
2019-04-10T13:29:40.494Z,1012.48
2019-04-10T13:30:53.582Z,1012.43
2019-04-10T13:32:09.763Z,1012.43
2019-04-10T13:33:21.064Z,1012.43
2019-04-10T13:34:33.419Z,1012.48
2019-04-10T13:35:44.533Z,1012.42
2019-04-10T13:36:54.256Z,1012.42
2019-04-10T13:38:05.067Z,1012.44
2019-04-10T13:39:34.935Z,1012.42
2019-04-10T13:40:45.858Z,1012.42
2019-04-10T13:41:57.162Z,1012.45
2019-04-10T13:43:08.087Z,1012.47
2019-04-10T13:44:20.477Z,1012.46
2019-04-10T13:45:31.615Z,1012.52
2019-04-10T13:46:42.637Z,1012.47
2019-04-10T13:47:54.608Z,1012.48
2019-04-10T13:49:04.681Z,1012.61
2019-04-10T13:50:14.694Z,1012.56
2019-04-10T13:51:25.480Z,1012.54
2019-04-10T13:52:36.291Z,1012.47
2019-04-10T13:53:52.301Z,1012.59
2019-04-10T13:55:05.190Z,1012.58
2019-04-10T13:56:18.843Z,1012.59
2019-04-10T13:57:29.194Z,1012.56
2019-04-10T13:58:40.429Z,1012.58
2019-04-10T13:59:51.636Z,1012.55
2019-04-10T14:01:03.083Z,1012.57
2019-04-10T14:02:15.080Z,1012.56
2019-04-10T14:03:26.130Z,1012.6
2019-04-10T14:04:36.991Z,1012.61
2019-04-10T14:05:47.797Z,1012.62
2019-04-10T14:06:58.453Z,1012.6
2019-04-10T14:08:10.517Z,1012.55
2019-04-10T14:09:43.855Z,1012.64
2019-04-10T14:11:01.254Z,1012.59
2019-04-10T14:12:14.420Z,1012.57
2019-04-10T14:13:25.750Z,1012.57
2019-04-10T14:14:37.056Z,1012.61
2019-04-10T14:15:48.432Z,1012.58
2019-04-10T14:16:59.315Z,1012.55
2019-04-10T14:18:14.433Z,1012.54
2019-04-10T14:19:25.578Z,1012.56
2019-04-10T14:20:37.635Z,1012.65
2019-04-10T14:21:49.162Z,1012.66
2019-04-10T14:23:00.151Z,1012.64
2019-04-10T14:24:11.490Z,1012.69
2019-04-10T14:25:23.311Z,1012.72
2019-04-10T14:26:43.621Z,1012.6
2019-04-10T14:28:04.917Z,1012.64
2019-04-10T14:29:17.023Z,1012.66
2019-04-10T14:30:29.155Z,1012.73
2019-04-10T14:31:40.645Z,1012.67
2019-04-10T14:32:51.836Z,1012.71
2019-04-10T14:34:04.961Z,1012.73
2019-04-10T14:35:16.986Z,1012.67
2019-04-10T14:36:28.108Z,1012.76
2019-04-10T14:37:38.859Z,1012.74
2019-04-10T14:38:49.484Z,1012.76
2019-04-10T14:40:20.076Z,1012.77
2019-04-10T14:41:29.705Z,1012.72
2019-04-10T14:42:40.851Z,1012.82
2019-04-10T14:43:51.907Z,1012.81
2019-04-10T14:45:03.501Z,1012.81
2019-04-10T14:46:14.552Z,1012.8
2019-04-10T14:47:27.586Z,1012.81
2019-04-10T14:48:40.340Z,1012.76
2019-04-10T14:49:52.458Z,1012.77
2019-04-10T14:51:06.115Z,1012.87
2019-04-10T14:52:17.270Z,1012.89
2019-04-10T14:53:28.506Z,1012.83
2019-04-10T14:54:39.843Z,1012.87
2019-04-10T14:55:51.464Z,1012.87
2019-04-10T14:57:02.682Z,1012.89
2019-04-10T14:58:20.465Z,1012.89
2019-04-10T14:59:40.084Z,1012.92
2019-04-10T15:00:53.049Z,1012.9
2019-04-10T15:02:05.059Z,1012.92
2019-04-10T15:03:16.145Z,1012.89